Time;durP1;ratioP1;P1;durP2;ratioP2;P2;SDS_P1;SDS_P2;PMS_P1;PMS_P2;Temp;Humidity;BMP_temperature;BMP_pressure;BME280_temperature;BME280_humidity;BME280_pressure;Samples;Min_cycle;Max_cycle;Signal;HPM_P1;HPM_P2
2023/12/04 00:00:24;;;;;;;15.60;7.90;;;;;;;-0.15;100.00;101641.00;7395925;19;19926;-78
2023/12/04 00:02:53;;;;;;;18.63;8.30;;;;;;;-0.14;100.00;101640.06;7397142;19;19943;-76
2023/12/04 00:05:21;;;;;;;18.02;8.07;;;;;;;-0.15;100.00;101638.34;7396756;19;19926;-77
2023/12/04 00:07:50;;;;;;;17.38;8.60;;;;;;;-0.16;100.00;101634.00;7394362;19;20873;-77
2023/12/04 00:10:18;;;;;;;16.77;7.28;;;;;;;-0.18;100.00;101627.94;7397145;19;19919;-77
2023/12/04 00:12:47;;;;;;;17.55;8.50;;;;;;;-0.18;100.00;101625.31;7394957;19;19939;-77
2023/12/04 00:15:19;;;;;;;18.77;8.35;;;;;;;-0.16;100.00;101627.84;7395912;19;19919;-76
2023/12/04 00:17:47;;;;;;;17.02;8.50;;;;;;;-0.17;100.00;101616.38;7394627;19;19926;-77
2023/12/04 00:20:16;;;;;;;16.90;7.70;;;;;;;-0.15;100.00;101611.00;7396497;19;19934;-77
2023/12/04 00:22:45;;;;;;;16.67;7.75;;;;;;;-0.18;100.00;101616.50;7394273;19;20502;-77
2023/12/04 00:25:13;;;;;;;17.63;7.63;;;;;;;-0.19;100.00;101613.00;7394116;19;20595;-77
2023/12/04 00:27:42;;;;;;;17.77;8.05;;;;;;;-0.19;100.00;101602.41;7394100;19;20329;-76
2023/12/04 00:30:12;;;;;;;18.33;8.70;;;;;;;-0.18;100.00;101612.06;7395752;19;19939;-77
2023/12/04 00:32:43;;;;;;;17.33;7.80;;;;;;;-0.18;100.00;101600.63;7393161;19;19981;-76
2023/12/04 00:35:12;;;;;;;14.70;7.43;;;;;;;-0.17;100.00;101597.00;7393962;19;20839;-77
2023/12/04 00:37:40;;;;;;;16.08;6.93;;;;;;;-0.17;100.00;101594.34;7394756;19;20266;-77
2023/12/04 00:40:10;;;;;;;22.30;7.93;;;;;;;-0.16;100.00;101599.56;7396544;19;19918;-77
2023/12/04 00:42:39;;;;;;;17.58;7.85;;;;;;;-0.17;100.00;101589.91;7396552;19;20648;-77
2023/12/04 00:45:09;;;;;;;15.98;7.47;;;;;;;-0.15;100.00;101582.75;7396188;19;19951;-77
2023/12/04 00:47:38;;;;;;;16.83;7.63;;;;;;;-0.18;100.00;101575.00;7395142;19;19919;-77
2023/12/04 00:50:10;;;;;;;15.13;7.82;;;;;;;-0.19;100.00;101578.56;7394962;19;19927;-77
2023/12/04 00:52:38;;;;;;;16.35;7.53;;;;;;;-0.18;100.00;101577.63;7393050;19;19955;-76
2023/12/04 00:55:09;;;;;;;18.92;8.30;;;;;;;-0.18;100.00;101572.34;7396319;19;20089;-76
2023/12/04 00:57:37;;;;;;;15.02;8.10;;;;;;;-0.18;100.00;101571.50;7395343;19;19915;-76
2023/12/04 01:00:07;;;;;;;18.63;7.50;;;;;;;-0.16;100.00;101570.44;7395355;19;19926;-76
2023/12/04 01:02:35;;;;;;;17.77;8.25;;;;;;;-0.16;100.00;101561.63;7392992;19;19926;-76
2023/12/04 01:05:04;;;;;;;17.90;8.77;;;;;;;-0.18;100.00;101560.91;7396374;19;19922;-76
2023/12/04 01:07:36;;;;;;;15.52;7.72;;;;;;;-0.20;100.00;101553.03;7394569;19;20285;-76
2023/12/04 01:10:05;;;;;;;16.88;7.72;;;;;;;-0.23;100.00;101555.03;7395034;19;19914;-76
2023/12/04 01:12:34;;;;;;;16.25;8.85;;;;;;;-0.27;100.00;101559.66;7395962;19;19927;-75
2023/12/04 01:15:03;;;;;;;17.23;8.30;;;;;;;-0.26;100.00;101556.03;7393058;19;19926;-76
2023/12/04 01:17:32;;;;;;;18.52;8.00;;;;;;;-0.28;100.00;101546.50;7394980;19;19922;-76
2023/12/04 01:20:01;;;;;;;16.58;7.47;;;;;;;-0.29;100.00;101548.28;7394794;19;19961;-77
2023/12/04 01:22:29;;;;;;;18.92;8.25;;;;;;;-0.30;100.00;101551.88;7394483;19;19938;-77
2023/12/04 01:25:00;;;;;;;15.35;8.15;;;;;;;-0.27;100.00;101548.19;7393559;19;19937;-77
2023/12/04 01:27:29;;;;;;;16.02;8.02;;;;;;;-0.25;100.00;101547.16;7395027;19;20278;-77
2023/12/04 01:29:58;;;;;;;16.33;7.53;;;;;;;-0.24;100.00;101540.94;7392787;19;19933;-77
2023/12/04 01:32:27;;;;;;;17.75;8.35;;;;;;;-0.22;100.00;101540.84;7393317;19;20496;-76
2023/12/04 01:34:55;;;;;;;16.05;7.72;;;;;;;-0.22;100.00;101540.84;7392092;19;19927;-76
2023/12/04 01:37:24;;;;;;;17.27;8.30;;;;;;;-0.22;100.00;101532.91;7395127;19;20297;-76
2023/12/04 01:39:52;;;;;;;14.45;7.40;;;;;;;-0.20;100.00;101546.88;7394365;19;20028;-76
2023/12/04 01:42:24;;;;;;;17.80;7.22;;;;;;;-0.20;100.00;101531.00;7392522;19;20774;-76
2023/12/04 01:44:50;;;;;;;15.18;8.10;;;;;;;-0.23;100.00;101532.03;7392900;19;19925;-76
2023/12/04 01:47:20;;;;;;;16.65;7.38;;;;;;;-0.23;100.00;101537.34;7393538;19;19923;-76
2023/12/04 01:49:50;;;;;;;16.30;7.68;;;;;;;-0.24;100.00;101532.97;7394321;19;19923;-75
2023/12/04 01:52:19;;;;;;;18.85;7.65;;;;;;;-0.26;100.00;101526.91;7392577;19;19921;-76
2023/12/04 01:54:48;;;;;;;15.18;8.15;;;;;;;-0.26;100.00;101526.91;7393909;19;19982;-76
2023/12/04 01:57:17;;;;;;;18.45;9.00;;;;;;;-0.24;100.00;101530.34;7391180;19;20357;-76
2023/12/04 01:59:49;;;;;;;16.75;7.90;;;;;;;-0.23;100.00;101518.81;7393195;19;20630;-76
2023/12/04 02:02:18;;;;;;;19.23;7.93;;;;;;;-0.22;100.00;101517.88;7393782;19;21567;-76
2023/12/04 02:04:47;;;;;;;15.00;8.50;;;;;;;-0.22;100.00;101515.22;7395837;19;19919;-76
2023/12/04 02:07:15;;;;;;;18.77;8.00;;;;;;;-0.21;100.00;101518.69;7395533;19;19918;-77
2023/12/04 02:09:44;;;;;;;18.17;7.97;;;;;;;-0.20;100.00;101515.97;7394446;19;19932;-76
2023/12/04 02:12:13;;;;;;;18.15;8.52;;;;;;;-0.18;100.00;101502.66;7391988;19;19974;-77
2023/12/04 02:14:42;;;;;;;17.60;8.50;;;;;;;-0.18;100.00;101513.25;7391484;19;19946;-76
2023/12/04 02:17:15;;;;;;;17.27;8.38;;;;;;;-0.21;100.00;101508.09;7393670;19;19927;-77
2023/12/04 02:19:44;;;;;;;15.30;8.00;;;;;;;-0.20;100.00;101509.81;7392999;19;19987;-76
2023/12/04 02:22:13;;;;;;;18.75;7.75;;;;;;;-0.20;100.00;101510.66;7390333;19;20403;-76
2023/12/04 02:24:45;;;;;;;15.85;7.53;;;;;;;-0.22;100.00;101509.94;7392511;19;20590;-76
2023/12/04 02:27:20;;;;;;;14.88;8.43;;;;;;;-0.21;100.00;101502.81;7391644;19;19928;-76
2023/12/04 02:29:51;;;;;;;16.63;8.88;;;;;;;-0.21;100.00;101490.44;7391647;19;19926;-76
2023/12/04 02:32:22;;;;;;;19.58;7.75;;;;;;;-0.20;100.00;101489.50;7390865;19;19922;-76
2023/12/04 02:34:53;;;;;;;14.95;8.23;;;;;;;-0.19;100.00;101490.34;7393304;19;19942;-76
2023/12/04 02:37:22;;;;;;;15.73;7.55;;;;;;;-0.21;100.00;101493.06;7389828;19;19918;-76
2023/12/04 02:39:55;;;;;;;16.98;7.70;;;;;;;-0.20;100.00;101486.84;7391102;19;19918;-76
2023/12/04 02:42:26;;;;;;;17.63;7.95;;;;;;;-0.20;100.00;101488.63;7391879;19;19922;-76
2023/12/04 02:44:54;;;;;;;18.83;8.43;;;;;;;-0.20;100.00;101472.75;7393058;19;19927;-76
2023/12/04 02:47:23;;;;;;;20.15;8.95;;;;;;;-0.21;100.00;101468.38;7390896;19;19942;-76
2023/12/04 02:49:52;;;;;;;15.80;7.38;;;;;;;-0.20;100.00;101463.00;7391104;19;20408;-76
2023/12/04 02:52:21;;;;;;;18.67;8.02;;;;;;;-0.17;100.00;101461.97;7396265;19;19974;-76
2023/12/04 02:54:50;;;;;;;16.52;7.30;;;;;;;-0.18;100.00;101460.28;7394294;19;20262;-76
2023/12/04 02:57:22;;;;;;;16.65;7.70;;;;;;;-0.15;100.00;101466.25;7395459;19;20054;-76
2023/12/04 02:59:51;;;;;;;18.00;8.32;;;;;;;-0.14;100.00;101467.09;7396681;19;19965;-76
2023/12/04 03:02:20;;;;;;;13.18;6.68;;;;;;;-0.14;100.00;101459.16;7397865;19;19927;-78
2023/12/04 03:04:48;;;;;;;16.98;7.90;;;;;;;-0.13;100.00;101456.38;7398311;19;19923;-78
2023/12/04 03:07:19;;;;;;;16.02;7.60;;;;;;;-0.12;100.00;101455.44;7397318;19;19933;-78
2023/12/04 03:09:48;;;;;;;15.93;7.78;;;;;;;-0.12;100.00;101458.09;7395916;19;19922;-79
2023/12/04 03:12:17;;;;;;;15.77;7.90;;;;;;;-0.09;100.00;101446.47;7396215;19;19918;-78
2023/12/04 03:14:48;;;;;;;15.70;7.93;;;;;;;-0.09;100.00;101439.34;7397340;19;19926;-78
2023/12/04 03:17:16;;;;;;;18.77;8.30;;;;;;;-0.07;100.00;101428.69;7398825;19;19935;-78
2023/12/04 03:19:45;;;;;;;17.98;7.55;;;;;;;-0.07;100.00;101437.47;7397392;19;19946;-78
2023/12/04 03:22:14;;;;;;;16.10;7.30;;;;;;;-0.03;100.00;101422.25;7396886;19;19922;-78
2023/12/04 03:24:43;;;;;;;16.80;7.35;;;;;;;-0.04;100.00;101424.03;7397812;19;20341;-79
2023/12/04 03:27:11;;;;;;;18.00;8.23;;;;;;;-0.06;100.00;101423.31;7397623;19;19926;-78
2023/12/04 03:29:40;;;;;;;13.57;7.80;;;;;;;-0.05;100.00;101418.84;7398795;19;19922;-78
2023/12/04 03:32:11;;;;;;;18.95;8.07;;;;;;;-0.04;100.00;101423.19;7395558;19;20266;-78
2023/12/04 03:34:40;;;;;;;17.40;8.38;;;;;;;-0.03;100.00;101417.81;7398147;19;19930;-78
2023/12/04 03:37:09;;;;;;;17.20;8.40;;;;;;;-0.03;100.00;101409.88;7396252;19;19923;-78
2023/12/04 03:39:37;;;;;;;18.55;8.23;;;;;;;-0.02;100.00;101398.31;7396647;19;20492;-79
2023/12/04 03:42:07;;;;;;;17.83;8.65;;;;;;;-0.01;100.00;101401.84;7397192;19;19963;-78
2023/12/04 03:44:55;;;;;;;15.07;7.35;;;;;;;-0.01;100.00;101402.69;6628660;19;15037606;-79
2023/12/04 03:47:26;;;;;;;16.23;8.23;;;;;;;-0.03;100.00;101391.31;7396407;19;19944;-76
2023/12/04 03:49:55;;;;;;;15.68;8.27;;;;;;;-0.04;100.00;101384.31;7396815;19;19915;-76
2023/12/04 03:52:23;;;;;;;18.05;8.43;;;;;;;-0.01;100.00;101383.28;7397983;19;20361;-79
2023/12/04 03:54:52;;;;;;;17.10;8.45;;;;;;;0.00;100.00;101392.94;7397153;19;19950;-79
2023/12/04 03:57:21;;;;;;;18.30;8.25;;;;;;;0.01;100.00;101381.38;7392837;19;20271;-77
2023/12/04 03:59:50;;;;;;;17.70;8.88;;;;;;;0.03;100.00;101384.78;7393891;19;19926;-77
2023/12/04 04:02:18;;;;;;;18.35;9.60;;;;;;;0.04;100.00;101369.75;7395881;19;19930;-77
2023/12/04 04:04:49;;;;;;;17.50;8.43;;;;;;;0.03;100.00;101371.56;7395226;19;20349;-77
2023/12/04 04:07:38;;;;;;;20.17;8.80;;;;;;;0.03;100.00;101370.69;7395116;19;19926;-77
2023/12/04 04:10:07;;;;;;;17.25;8.07;;;;;;;0.03;100.00;101368.06;7395435;19;19918;-76
2023/12/04 04:12:36;;;;;;;18.25;7.93;;;;;;;0.02;100.00;101369.00;7395163;19;19918;-76
2023/12/04 04:15:05;;;;;;;19.88;8.75;;;;;;;0.02;100.00;101371.63;7398554;19;19945;-76
2023/12/04 04:17:34;;;;;;;18.77;8.75;;;;;;;0.01;100.00;101365.50;7396802;19;19955;-77
2023/12/04 04:20:05;;;;;;;17.27;9.32;;;;;;;-0.01;100.00;101362.97;7396212;19;19915;-77
2023/12/04 04:22:37;;;;;;;17.23;8.23;;;;;;;0.02;100.00;101366.34;7395605;19;19922;-77
2023/12/04 04:25:07;;;;;;;19.52;9.30;;;;;;;0.03;100.00;101352.16;7395906;19;20342;-77
2023/12/04 04:27:36;;;;;;;19.45;8.55;;;;;;;0.03;100.00;101354.81;7392602;19;19923;-77
2023/12/04 04:30:06;;;;;;;17.70;9.50;;;;;;;0.03;100.00;101350.38;7397259;19;20373;-77
2023/12/04 04:32:34;;;;;;;15.63;7.88;;;;;;;0.03;100.00;101341.56;7394426;19;19922;-77
2023/12/04 04:35:06;;;;;;;17.48;8.32;;;;;;;0.02;100.00;101351.31;7393318;19;20351;-77
2023/12/04 04:37:35;;;;;;;17.15;8.32;;;;;;;0.01;100.00;101344.31;7394776;19;19958;-77
2023/12/04 04:40:03;;;;;;;19.65;9.00;;;;;;;0.03;100.00;101347.72;7394306;19;19953;-76
2023/12/04 04:42:32;;;;;;;18.92;9.40;;;;;;;0.04;100.00;101351.22;7394223;19;19943;-77
2023/12/04 04:45:01;;;;;;;16.75;7.72;;;;;;;0.04;100.00;101354.72;7395812;19;19918;-77
2023/12/04 04:47:29;;;;;;;16.33;7.78;;;;;;;0.03;100.00;101347.72;7395350;19;19958;-77
2023/12/04 04:49:58;;;;;;;21.38;9.32;;;;;;;0.03;100.00;101346.88;7394205;19;19914;-77
2023/12/04 04:52:29;;;;;;;19.85;8.07;;;;;;;0.05;100.00;101352.91;7394500;19;19926;-77
2023/12/04 04:54:57;;;;;;;17.50;8.50;;;;;;;0.05;100.00;101351.09;7393780;19;19946;-77
2023/12/04 04:57:26;;;;;;;18.67;8.27;;;;;;;0.04;100.00;101343.28;7395103;19;19928;-77
2023/12/04 04:59:52;;;;;;;20.27;9.10;;;;;;;0.03;100.00;101337.13;7391845;19;20290;-77
2023/12/04 05:02:21;;;;;;;20.40;8.70;;;;;;;0.03;100.00;101334.47;7395824;19;19914;-77
2023/12/04 05:04:49;;;;;;;19.23;8.55;;;;;;;0.04;100.00;101327.38;7392567;19;19947;-77
2023/12/04 05:07:18;;;;;;;19.73;8.55;;;;;;;0.03;100.00;101329.19;7395168;19;19934;-76
2023/12/04 05:09:49;;;;;;;22.58;9.77;;;;;;;0.02;100.00;101330.13;7393759;19;19943;-77
2023/12/04 05:12:18;;;;;;;19.77;9.23;;;;;;;0.03;100.00;101328.31;7393551;19;19927;-77
2023/12/04 05:14:46;;;;;;;17.08;8.60;;;;;;;0.03;100.00;101333.63;7393153;19;19948;-77
2023/12/04 05:17:15;;;;;;;19.90;8.55;;;;;;;0.04;100.00;101337.97;7394801;19;20300;-77
2023/12/04 05:20:03;;;;;;;20.77;8.00;;;;;;;0.04;100.00;101333.53;7391825;19;19926;-77
2023/12/04 05:22:32;;;;;;;18.15;8.23;;;;;;;0.06;100.00;101330.75;7395073;19;20512;-77
2023/12/04 05:25:03;;;;;;;19.08;7.70;;;;;;;0.05;100.00;101329.91;7395300;19;20040;-77
2023/12/04 05:27:32;;;;;;;20.70;9.15;;;;;;;0.07;100.00;101325.38;7394755;19;19919;-77
2023/12/04 05:30:00;;;;;;;18.65;7.95;;;;;;;0.07;100.00;101324.53;7394479;19;20532;-77
2023/12/04 05:32:29;;;;;;;21.38;9.38;;;;;;;0.07;100.00;101319.22;7393051;19;19950;-77
2023/12/04 05:34:57;;;;;;;20.33;10.38;;;;;;;0.06;100.00;101314.88;7392628;19;19936;-77
2023/12/04 05:37:26;;;;;;;18.27;7.90;;;;;;;0.07;100.00;101316.59;7393620;19;20301;-77
2023/12/04 05:40:17;;;;;;;15.98;8.13;;;;;;;0.07;100.00;101312.13;7390667;19;20030;-79
2023/12/04 05:42:46;;;;;;;18.85;8.40;;;;;;;0.07;100.00;101306.84;7394282;19;19919;-77
2023/12/04 05:45:14;;;;;;;17.30;8.95;;;;;;;0.08;100.00;101310.34;7390222;19;19919;-77
2023/12/04 05:48:03;;;;;;;17.92;8.82;;;;;;;0.05;100.00;101308.72;7391305;19;19927;-77
2023/12/04 05:50:31;;;;;;;21.00;9.00;;;;;;;0.05;100.00;101307.88;7392024;19;19922;-77
2023/12/04 05:53:01;;;;;;;21.95;8.93;;;;;;;0.07;100.00;101308.63;7390019;19;19937;-77
2023/12/04 05:55:33;;;;;;;19.17;7.82;;;;;;;0.06;100.00;101305.13;7388263;19;19922;-77
2023/12/04 05:58:02;;;;;;;15.90;7.88;;;;;;;0.05;100.00;101303.44;7393703;19;19917;-77
2023/12/04 06:00:31;;;;;;;18.10;8.80;;;;;;;0.05;100.00;101302.56;7393874;19;19939;-77
2023/12/04 06:03:00;;;;;;;18.40;9.10;;;;;;;0.08;100.00;101300.59;7390730;19;19918;-77
2023/12/04 06:05:28;;;;;;;18.58;8.80;;;;;;;0.10;100.00;101287.22;7395648;19;19922;-77
2023/12/04 06:07:57;;;;;;;20.50;8.38;;;;;;;0.12;100.00;101280.06;7393221;19;19926;-77
2023/12/04 06:10:26;;;;;;;17.58;9.10;;;;;;;0.13;100.00;101284.41;7392558;19;19955;-77
2023/12/04 06:12:57;;;;;;;20.55;9.32;;;;;;;0.13;100.00;101276.47;7390942;19;19923;-77
2023/12/04 06:15:26;;;;;;;20.65;8.38;;;;;;;0.14;100.00;101280.78;7394282;19;19922;-77
2023/12/04 06:17:54;;;;;;;17.95;8.35;;;;;;;0.15;100.00;101283.34;7392587;19;20628;-78
2023/12/04 06:20:23;;;;;;;19.60;9.20;;;;;;;0.19;100.00;101276.03;7395019;19;19926;-77
2023/12/04 06:22:52;;;;;;;16.55;8.95;;;;;;;0.20;100.00;101275.09;7392993;19;19915;-77
2023/12/04 06:25:22;;;;;;;16.25;8.95;;;;;;;0.22;100.00;101278.47;7396088;19;19922;-77
2023/12/04 06:27:51;;;;;;;16.38;7.60;;;;;;;0.23;100.00;101267.78;7397713;19;19943;-77
2023/12/04 06:30:24;;;;;;;20.05;8.15;;;;;;;0.24;100.00;101258.06;7397937;19;20400;-77
2023/12/04 06:32:53;;;;;;;17.00;7.72;;;;;;;0.25;100.00;101268.56;7398071;19;19926;-77
2023/12/04 06:35:42;;;;;;;18.10;8.38;;;;;;;0.26;100.00;101267.59;7392279;19;19922;-77
2023/12/04 06:38:13;;;;;;;18.45;8.23;;;;;;;0.24;100.00;101266.00;7399468;19;19926;-77
2023/12/04 06:40:43;;;;;;;19.95;8.57;;;;;;;0.24;100.00;101258.06;7395667;19;19923;-77
2023/12/04 06:43:12;;;;;;;19.85;8.63;;;;;;;0.24;100.00;101255.41;7396052;19;20424;-76
2023/12/04 06:45:44;;;;;;;18.13;8.35;;;;;;;0.24;100.00;101252.75;7391566;19;19956;-77
2023/12/04 06:48:15;;;;;;;18.35;8.57;;;;;;;0.24;100.00;101243.00;7396367;19;20542;-77
2023/12/04 06:50:44;;;;;;;13.75;8.07;;;;;;;0.26;100.00;101242.91;7392304;19;19922;-76
2023/12/04 06:53:12;;;;;;;20.70;7.78;;;;;;;0.26;100.00;101240.25;7398195;19;19926;-76
2023/12/04 06:55:41;;;;;;;15.75;8.10;;;;;;;0.26;100.00;101232.31;7398144;19;19923;-77
2023/12/04 06:58:10;;;;;;;18.02;7.68;;;;;;;0.27;100.00;101236.63;7394468;19;19926;-76
2023/12/04 07:00:39;;;;;;;17.02;7.88;;;;;;;0.28;100.00;101233.91;7397929;19;19922;-76
2023/12/04 07:03:10;;;;;;;16.10;7.32;;;;;;;0.32;100.00;101240.69;7396767;19;19926;-77
2023/12/04 07:05:39;;;;;;;17.67;9.00;;;;;;;0.33;100.00;101233.59;7397281;19;19926;-76
2023/12/04 07:08:07;;;;;;;17.40;8.07;;;;;;;0.34;100.00;101236.16;7395145;19;19919;-77
2023/12/04 07:10:36;;;;;;;14.50;7.03;;;;;;;0.33;100.00;101231.78;7395861;19;19926;-79
2023/12/04 07:13:04;;;;;;;17.67;8.00;;;;;;;0.34;100.00;101224.69;7392195;19;20372;-76
2023/12/04 07:15:33;;;;;;;18.65;7.72;;;;;;;0.35;100.00;101227.22;7396562;19;19919;-77
2023/12/04 07:18:01;;;;;;;17.30;7.57;;;;;;;0.33;100.00;101223.84;7397154;19;19918;-77
2023/12/04 07:20:32;;;;;;;16.40;7.35;;;;;;;0.34;100.00;101216.75;7395805;19;19922;-77
2023/12/04 07:23:01;;;;;;;15.40;7.22;;;;;;;0.34;100.00;101222.06;7396063;19;19951;-77
2023/12/04 07:25:30;;;;;;;14.77;7.90;;;;;;;0.33;100.00;101212.41;7396290;19;19955;-77
2023/12/04 07:27:59;;;;;;;16.50;7.30;;;;;;;0.33;100.00;101218.56;7395833;19;19929;-77
2023/12/04 07:30:28;;;;;;;19.23;8.40;;;;;;;0.33;100.00;101210.59;7391449;19;19922;-77
2023/12/04 07:33:00;;;;;;;14.82;6.68;;;;;;;0.31;100.00;101211.63;7396967;19;19934;-76
2023/12/04 07:35:29;;;;;;;16.00;6.93;;;;;;;0.29;100.00;101206.47;7388960;19;19926;-76
2023/12/04 07:38:03;;;;;;;14.38;8.07;;;;;;;0.24;100.00;101192.66;7393683;19;19922;-76
2023/12/04 07:40:32;;;;;;;16.23;7.85;;;;;;;0.27;100.00;101199.53;7394207;19;19923;-76
2023/12/04 07:43:01;;;;;;;13.20;7.10;;;;;;;0.29;100.00;101200.31;7391739;19;19929;-75
2023/12/04 07:45:49;;;;;;;15.40;7.75;;;;;;;0.26;100.00;101195.22;7387004;19;20375;-75
2023/12/04 07:48:18;;;;;;;15.00;7.18;;;;;;;0.27;100.00;101191.59;7397961;19;19923;-75
2023/12/04 07:50:47;;;;;;;13.10;6.35;;;;;;;0.28;100.00;101190.66;7397613;19;19923;-75
2023/12/04 07:53:19;;;;;;;15.70;7.25;;;;;;;0.28;100.00;101188.00;7393243;19;19922;-75
2023/12/04 07:55:49;;;;;;;15.10;7.00;;;;;;;0.30;100.00;101189.59;7394758;19;19922;-75
2023/12/04 07:58:19;;;;;;;12.20;6.13;;;;;;;0.30;100.00;101186.13;7395476;19;20260;-76
2023/12/04 08:00:48;;;;;;;17.95;7.15;;;;;;;0.27;100.00;101178.34;7394673;19;19929;-75
2023/12/04 08:03:16;;;;;;;11.90;6.57;;;;;;;0.33;100.00;101180.59;7393244;19;19923;-76
2023/12/04 08:05:45;;;;;;;15.80;6.65;;;;;;;0.34;100.00;101180.50;7393512;19;19947;-76
2023/12/04 08:08:14;;;;;;;14.30;6.88;;;;;;;0.36;100.00;101183.03;7394137;19;19972;-76
2023/12/04 08:10:46;;;;;;;14.13;6.65;;;;;;;0.37;100.00;101188.25;7399102;19;19970;-75
2023/12/04 08:13:15;;;;;;;13.10;6.78;;;;;;;0.40;100.00;101181.88;7394036;19;19918;-75
2023/12/04 08:15:44;;;;;;;12.70;6.05;;;;;;;0.39;100.00;101186.31;7395709;19;19956;-76
2023/12/04 08:18:12;;;;;;;12.70;6.55;;;;;;;0.41;100.00;101188.88;7387744;19;19981;-75
2023/12/04 08:21:03;;;;;;;12.88;6.20;;;;;;;0.41;100.00;101181.78;7394366;19;19922;-76
2023/12/04 08:23:31;;;;;;;13.23;6.10;;;;;;;0.41;100.00;101179.13;7397189;19;19922;-77
2023/12/04 08:26:03;;;;;;;14.30;6.75;;;;;;;0.44;100.00;101183.34;7396289;19;19922;-79
2023/12/04 08:28:31;;;;;;;12.68;6.72;;;;;;;0.47;100.00;101180.50;7396810;19;19922;-78
2023/12/04 08:31:00;;;;;;;12.77;6.53;;;;;;;0.49;100.00;101175.09;7394245;19;19948;-78
2023/12/04 08:33:29;;;;;;;11.75;5.80;;;;;;;0.50;100.00;101167.03;7394900;19;20360;-78
2023/12/04 08:35:57;;;;;;;9.50;5.85;;;;;;;0.54;100.00;101170.31;7393942;19;19926;-78
2023/12/04 08:38:30;;;;;;;12.60;5.68;;;;;;;0.54;100.00;101165.88;7391121;19;19926;-76
2023/12/04 08:41:05;;;;;;;10.55;4.97;;;;;;;0.57;100.00;101157.69;7393768;19;19922;-76
2023/12/04 08:43:35;;;;;;;13.02;6.70;;;;;;;0.59;100.00;101154.97;7393190;19;19922;-76
2023/12/04 08:46:04;;;;;;;10.00;5.55;;;;;;;0.58;100.00;101148.81;7395218;19;19946;-76
2023/12/04 08:48:33;;;;;;;10.02;6.30;;;;;;;0.59;100.00;101141.72;7394641;19;19946;-76
2023/12/04 08:51:02;;;;;;;11.02;5.82;;;;;;;0.64;100.00;101151.03;7395010;19;19922;-76
2023/12/04 08:53:30;;;;;;;10.38;5.93;;;;;;;0.58;100.00;101138.19;7396293;19;19923;-76
2023/12/04 08:55:59;;;;;;;11.55;5.97;;;;;;;0.62;100.00;101150.28;7393935;19;20333;-75
2023/12/04 08:58:32;;;;;;;14.57;6.88;;;;;;;0.63;100.00;101146.69;7393622;19;20312;-75
2023/12/04 09:01:01;;;;;;;11.25;5.72;;;;;;;0.66;100.00;101151.78;7394695;19;19919;-75
2023/12/04 09:03:31;;;;;;;11.52;5.28;;;;;;;0.64;100.00;101143.09;7393844;19;19915;-76
2023/12/04 09:06:00;;;;;;;11.73;5.72;;;;;;;0.67;100.00;101148.16;7395315;19;20290;-76
2023/12/04 09:08:29;;;;;;;9.25;5.30;;;;;;;0.69;100.00;101140.13;7393546;19;20014;-76
2023/12/04 09:10:58;;;;;;;12.27;5.60;;;;;;;0.70;100.00;101153.25;7393260;19;19933;-76
2023/12/04 09:13:27;;;;;;;12.32;5.60;;;;;;;0.71;99.73;101151.44;7394744;19;19926;-76
2023/12/04 09:15:58;;;;;;;11.57;5.93;;;;;;;0.71;99.88;101147.00;7394279;19;19922;-76
2023/12/04 09:18:26;;;;;;;12.55;6.00;;;;;;;0.73;99.87;101150.41;7394401;19;19939;-75
2023/12/04 09:20:55;;;;;;;10.60;5.95;;;;;;;0.74;99.21;101149.44;7392993;19;19918;-77
2023/12/04 09:23:24;;;;;;;9.93;5.03;;;;;;;0.77;99.57;101151.03;7396160;19;19918;-76
2023/12/04 09:25:52;;;;;;;11.98;5.68;;;;;;;0.79;99.60;101142.00;7394515;19;19922;-76
2023/12/04 09:28:21;;;;;;;12.23;6.35;;;;;;;0.82;99.51;101144.44;7394368;19;19919;-76
2023/12/04 09:30:50;;;;;;;9.82;5.53;;;;;;;0.85;99.42;101141.59;7390897;19;19914;-76
2023/12/04 09:33:21;;;;;;;9.30;5.43;;;;;;;0.88;98.83;101146.66;7390064;19;19929;-75
2023/12/04 09:35:50;;;;;;;11.82;6.32;;;;;;;0.89;98.88;101136.91;7389009;19;19923;-76
2023/12/04 09:38:20;;;;;;;12.20;6.00;;;;;;;0.93;98.49;101140.19;7393413;19;19956;-76
2023/12/04 09:40:50;;;;;;;11.85;5.95;;;;;;;0.91;97.86;101143.78;7389366;19;19922;-78
2023/12/04 09:43:19;;;;;;;11.43;5.70;;;;;;;0.96;97.51;101151.41;7393940;19;19926;-79
2023/12/04 09:45:48;;;;;;;11.85;5.75;;;;;;;0.99;97.98;101153.88;7392680;19;19930;-78
2023/12/04 09:48:16;;;;;;;10.15;5.25;;;;;;;1.02;97.65;101145.69;7393923;19;19962;-76
2023/12/04 09:50:50;;;;;;;10.57;5.32;;;;;;;1.05;97.97;101142.81;7391471;19;20269;-78
2023/12/04 09:53:18;;;;;;;9.45;5.47;;;;;;;1.10;97.96;101135.38;7391156;19;19943;-76
2023/12/04 09:55:51;;;;;;;13.13;5.88;;;;;;;1.14;97.87;101134.19;7393010;19;19915;-78
2023/12/04 09:58:22;;;;;;;10.90;5.47;;;;;;;1.14;97.28;101128.03;7387597;19;19922;-75
2023/12/04 10:00:54;;;;;;;10.73;5.40;;;;;;;1.16;97.54;101131.44;7391121;19;21054;-75
2023/12/04 10:03:23;;;;;;;10.10;5.60;;;;;;;1.14;97.18;101131.53;7390462;19;19979;-75
2023/12/04 10:05:57;;;;;;;10.82;5.60;;;;;;;1.16;97.18;101129.63;7392014;19;20404;-75
2023/12/04 10:08:25;;;;;;;11.48;5.53;;;;;;;1.20;97.39;101124.94;7389753;19;20426;-75
2023/12/04 10:10:54;;;;;;;10.95;5.10;;;;;;;1.22;97.44;101125.66;7390034;19;19926;-78
2023/12/04 10:13:23;;;;;;;9.60;5.50;;;;;;;1.24;96.73;101121.97;7390768;19;19933;-78
2023/12/04 10:15:53;;;;;;;12.07;5.60;;;;;;;1.27;96.47;101120.88;7387234;19;19939;-78
2023/12/04 10:18:29;;;;;;;14.23;6.28;;;;;;;1.29;95.39;101111.03;7392642;19;19929;-78
2023/12/04 10:21:02;;;;;;;12.07;5.35;;;;;;;1.31;95.54;101117.91;7386140;19;19922;-76
2023/12/04 10:23:51;;;;;;;9.65;5.18;;;;;;;1.35;96.06;101114.06;7385700;19;20360;-76
2023/12/04 10:26:19;;;;;;;10.85;5.70;;;;;;;1.39;95.76;101114.66;7390138;19;19929;-76
2023/12/04 10:29:02;;;;;;;8.77;5.05;;;;;;;1.40;95.46;101110.22;7390929;19;19958;-75
2023/12/04 10:31:36;;;;;;;10.90;5.90;;;;;;;1.43;95.56;101102.88;7391740;19;19923;-76
2023/12/04 10:34:07;;;;;;;10.75;5.47;;;;;;;1.49;95.37;101099.78;7378846;19;19921;-76
2023/12/04 10:36:38;;;;;;;11.60;5.85;;;;;;;1.50;95.21;101097.97;7392734;19;20341;-75
2023/12/04 10:39:08;;;;;;;12.38;5.93;;;;;;;1.54;95.74;101084.34;7393162;19;19926;-76
2023/12/04 10:41:36;;;;;;;11.30;5.43;;;;;;;1.58;95.28;101079.66;7387642;19;19922;-76
2023/12/04 10:44:06;;;;;;;9.23;4.80;;;;;;;1.61;95.68;101082.06;7387208;19;19918;-76
2023/12/04 10:46:38;;;;;;;11.38;5.38;;;;;;;1.63;95.39;101072.19;7387724;19;19922;-76
2023/12/04 10:49:07;;;;;;;10.23;5.10;;;;;;;1.66;95.33;101074.63;7387892;19;19934;-76
2023/12/04 10:51:39;;;;;;;10.95;5.18;;;;;;;1.65;94.81;101081.72;7391963;19;19926;-76
2023/12/04 10:54:07;;;;;;;;;;;;;;;1.56;92.79;101079.75;7393128;19;19946;-76
2023/12/04 10:56:40;;;;;;;11.75;5.85;;;;;;;1.60;94.33;101073.25;7390412;19;19931;-75
2023/12/04 10:59:13;;;;;;;9.57;4.85;;;;;;;1.62;94.53;101067.84;7391558;19;19943;-76
2023/12/04 11:01:47;;;;;;;10.02;4.78;;;;;;;1.63;94.05;101072.19;7386118;19;19919;-76
2023/12/04 11:04:22;;;;;;;9.63;5.65;;;;;;;1.63;93.99;101067.75;7386652;19;19996;-76
2023/12/04 11:06:56;;;;;;;8.32;4.57;;;;;;;1.64;94.03;101068.59;7386513;19;19926;-74
2023/12/04 11:09:27;;;;;;;9.82;5.45;;;;;;;1.66;94.47;101064.84;7387744;19;20054;-76
2023/12/04 11:12:02;;;;;;;11.52;5.80;;;;;;;1.65;94.30;101055.19;7391804;19;20358;-74
2023/12/04 11:14:36;;;;;;;9.35;4.63;;;;;;;1.67;94.35;101050.63;7394057;19;19926;-79
2023/12/04 11:17:11;;;;;;;9.95;5.20;;;;;;;1.71;94.45;101051.22;7398379;19;19922;-76
2023/12/04 11:19:46;;;;;;;9.52;5.28;;;;;;;1.69;93.63;101035.41;7397304;19;19918;-77
2023/12/04 11:22:20;;;;;;;10.43;5.05;;;;;;;1.70;93.65;101039.75;7397493;19;19926;-78
2023/12/04 11:24:50;;;;;;;7.88;5.15;;;;;;;1.75;94.13;101036.75;7396396;19;19931;-78
2023/12/04 11:27:19;;;;;;;10.15;4.93;;;;;;;1.76;93.45;101034.00;7394026;19;19926;-75
2023/12/04 11:29:49;;;;;;;9.68;5.22;;;;;;;1.78;93.23;101031.19;7397723;19;20658;-75